»·PEaware :: AAL343 KSFO-KLAX

AAL343 :: KSFO-KLAX

FLIGHT INFORMATION

Flight Status: Arrived
Operator:
American Airlines
More flights by this operator :: More flights under this callsign
Pilot: James W. (12414)
Aircraft: AIRBUS A320
(A320)
More flights by this aircraft type
Origin: KSFO San Francisco Intl
United States
Destination: KLAX Los Angeles Intl
United States
More flights between these airports :: More routes between these airports
Route: +WESLA3 EBAY BURGL IRNMN1
File this flight plan on PilotEdge
Remarks:
Altitude:
(Current/Filed)
25,000ft
Speed:
(Current/Filed)
400kts
Departed: 10-Jun-17 03:35 PM
Arrived: 10-Jun-17 04:37 PM
Distance/Time
Traveled:
293nm/1:01
Distance/Time
To Go:
Arrived

Flight Plot

Page will automatically refresh every two minutes.

Flight plan parsing failed; only flown route is shown


Map Options




Map Legend


Flown Route
Filed Route
Departure Airport
Arrival Airport
Navaid (VOR, NDB)
Fix

Horizontal Profiles

Position Reports

Time Latitude Longitude Heading Altitude Ground
Speed
10-Jun-17 15:15 37.618318 -122.381990 139 21ft 0kts
10-Jun-17 15:16 37.618318 -122.381990 139 21ft 0kts
10-Jun-17 15:17 37.618318 -122.381990 139 21ft 0kts
10-Jun-17 15:18 37.618318 -122.381990 139 21ft 0kts
10-Jun-17 15:19 37.618318 -122.381990 139 21ft 0kts
10-Jun-17 15:20 37.618318 -122.381990 139 21ft 0kts
10-Jun-17 15:21 37.618318 -122.381990 139 21ft 0kts
10-Jun-17 15:22 37.618318 -122.381990 139 21ft 0kts
10-Jun-17 15:23 37.618318 -122.381990 139 21ft 0kts
10-Jun-17 15:24 37.618318 -122.381990 139 21ft 0kts
10-Jun-17 15:25 37.618318 -122.381990 139 21ft 0kts
10-Jun-17 15:26 37.618318 -122.381990 139 21ft 0kts
10-Jun-17 15:27 37.618318 -122.381990 139 21ft 0kts
10-Jun-17 15:28 37.618318 -122.381990 139 21ft 0kts
10-Jun-17 15:29 37.618491 -122.382179 139 21ft 4kts
10-Jun-17 15:30 37.618811 -122.382579 51 21ft 0kts
10-Jun-17 15:31 37.618808 -122.382583 50 21ft 0kts
10-Jun-17 15:32 37.618808 -122.382583 50 21ft 0kts
10-Jun-17 15:33 37.618482 -122.379214 118 21ft 18kts
10-Jun-17 15:34 37.615171 -122.370381 120 21ft 29kts
10-Jun-17 15:35 37.611199 -122.362032 116 21ft 27kts
10-Jun-17 15:36 37.612206 -122.359555 297 21ft 8kts
10-Jun-17 15:37 37.618318 -122.373968 295 116ft 156kts
10-Jun-17 15:38 37.644773 -122.434960 288 1810ft 217kts
10-Jun-17 15:39 37.605942 -122.474167 184 3876ft 243kts
10-Jun-17 15:40 37.535245 -122.475444 182 5793ft 279kts
10-Jun-17 15:41 37.466117 -122.439581 135 7765ft 297kts
10-Jun-17 15:42 37.410261 -122.366840 135 9604ft 307kts
10-Jun-17 15:43 37.353681 -122.290942 135 11425ft 319kts
10-Jun-17 15:44 37.292050 -122.208125 136 13345ft 348kts
10-Jun-17 15:45 37.224032 -122.116892 136 15271ft 385kts
10-Jun-17 15:46 37.149736 -122.017523 137 17195ft 413kts
10-Jun-17 15:47 37.071532 -121.913266 137 19024ft 429kts
10-Jun-17 15:48 36.992884 -121.807901 138 20044ft 434kts
10-Jun-17 15:49 36.910807 -121.699129 139 21523ft 443kts
10-Jun-17 15:50 36.827312 -121.588939 139 23004ft 453kts
10-Jun-17 15:51 36.740907 -121.474415 139 24514ft 465kts
10-Jun-17 15:52 36.652788 -121.356489 139 24994ft 469kts
10-Jun-17 15:53 36.565421 -121.239903 139 25020ft 470kts
10-Jun-17 15:54 36.478913 -121.124870 138 24995ft 471kts
10-Jun-17 15:55 36.395387 -121.010268 136 24998ft 473kts
10-Jun-17 15:56 36.313385 -120.892642 136 24942ft 475kts
10-Jun-17 15:57 36.228604 -120.770415 136 24940ft 476kts
10-Jun-17 15:58 36.143881 -120.649563 136 24941ft 476kts
10-Jun-17 15:59 36.059175 -120.529205 136 24941ft 476kts
10-Jun-17 16:00 35.973268 -120.407578 136 24941ft 477kts
10-Jun-17 16:01 35.887405 -120.286463 136 24942ft 477kts
10-Jun-17 16:02 35.785773 -120.198257 154 24942ft 464kts
10-Jun-17 16:03 35.677727 -120.116719 154 24942ft 463kts
10-Jun-17 16:04 35.569856 -120.035418 154 24943ft 465kts
10-Jun-17 16:05 35.464724 -119.956303 154 24943ft 465kts
10-Jun-17 16:06 35.366571 -119.882546 154 24939ft 464kts
10-Jun-17 16:07 35.260497 -119.797828 147 24899ft 472kts
10-Jun-17 16:08 35.158117 -119.701811 148 24932ft 471kts
10-Jun-17 16:09 35.055123 -119.605888 148 24932ft 471kts
10-Jun-17 16:10 34.952397 -119.510527 148 24932ft 472kts
10-Jun-17 16:11 34.848367 -119.416389 149 24933ft 472kts
10-Jun-17 16:12 34.746713 -119.325569 149 23916ft 445kts
10-Jun-17 16:13 34.650806 -119.241914 149 22070ft 421kts
10-Jun-17 16:14 34.558383 -119.162187 148 20018ft 401kts
10-Jun-17 16:15 34.487820 -119.099634 148 18620ft 369kts
10-Jun-17 16:16 34.396817 -119.020148 148 15959ft 348kts
10-Jun-17 16:17 34.321624 -118.954288 145 13977ft 333kts
10-Jun-17 16:18 34.256408 -118.895081 146 13970ft 304kts
10-Jun-17 16:19 34.198656 -118.841446 146 13188ft 286kts
10-Jun-17 16:20 34.139112 -118.782294 140 11213ft 279kts
10-Jun-17 16:21 34.089487 -118.728400 139 9159ft 305kts
10-Jun-17 16:22 34.030802 -118.650724 97 8762ft 253kts
10-Jun-17 16:23 34.021102 -118.567607 95 8079ft 242kts
10-Jun-17 16:24 34.013181 -118.487391 94 6966ft 220kts
10-Jun-17 16:25 34.012572 -118.429316 81 6217ft 215kts
10-Jun-17 16:26 34.017679 -118.359747 81 4982ft 196kts
10-Jun-17 16:27 34.022829 -118.286754 81 4977ft 196kts
10-Jun-17 16:28 34.027149 -118.225429 81 4322ft 196kts
10-Jun-17 16:29 34.031162 -118.166332 81 3977ft 172kts
10-Jun-17 16:30 34.023701 -118.113522 154 4020ft 176kts
10-Jun-17 16:31 33.989200 -118.124389 226 3976ft 160kts
10-Jun-17 16:32 33.976427 -118.171216 264 3904ft 150kts
10-Jun-17 16:33 33.970894 -118.217333 266 3194ft 142kts
10-Jun-17 16:34 33.966330 -118.261778 263 2537ft 137kts
10-Jun-17 16:35 33.962525 -118.305732 263 1754ft 135kts
10-Jun-17 16:36 33.958340 -118.350038 262 1053ft 134kts
10-Jun-17 16:37 33.953106 -118.393482 263 337ft 132kts
10-Jun-17 16:38 33.949793 -118.424123 260 133ft 42kts
10-Jun-17 16:39 33.948831 -118.426365 233 133ft 0kts
10-Jun-17 16:40 33.947137 -118.427689 191 133ft 16kts
10-Jun-17 16:41 33.947178 -118.419252 82 133ft 42kts
10-Jun-17 16:42 33.948584 -118.406565 84 133ft 26kts

Navigation Log

Ident Type
Flight plan parsing failed, navigation log unavailable